sensor_id;sensor_type;location;lat;lon;timestamp;P1;durP1;ratioP1;P2;durP2;ratioP2
5343;SDS011;2694;48.950;8.970;2022-07-23T00:00:08;8.95;;;4.05;;
5343;SDS011;2694;48.950;8.970;2022-07-23T00:02:37;6.38;;;4.07;;
5343;SDS011;2694;48.950;8.970;2022-07-23T00:05:04;7.57;;;4.55;;
5343;SDS011;2694;48.950;8.970;2022-07-23T00:07:31;6.30;;;4.28;;
5343;SDS011;2694;48.950;8.970;2022-07-23T00:09:58;5.93;;;4.65;;
5343;SDS011;2694;48.950;8.970;2022-07-23T00:12:25;6.20;;;3.65;;
5343;SDS011;2694;48.950;8.970;2022-07-23T00:14:52;6.75;;;4.38;;
5343;SDS011;2694;48.950;8.970;2022-07-23T00:17:19;6.03;;;3.97;;
5343;SDS011;2694;48.950;8.970;2022-07-23T00:19:47;5.85;;;4.00;;
5343;SDS011;2694;48.950;8.970;2022-07-23T00:22:13;6.68;;;4.10;;
5343;SDS011;2694;48.950;8.970;2022-07-23T00:24:40;5.50;;;3.70;;
5343;SDS011;2694;48.950;8.970;2022-07-23T00:27:07;6.45;;;3.80;;
5343;SDS011;2694;48.950;8.970;2022-07-23T00:29:34;5.50;;;4.00;;
5343;SDS011;2694;48.950;8.970;2022-07-23T00:32:01;4.07;;;3.55;;
5343;SDS011;2694;48.950;8.970;2022-07-23T00:34:28;5.57;;;3.78;;
5343;SDS011;2694;48.950;8.970;2022-07-23T00:36:56;5.60;;;3.50;;
5343;SDS011;2694;48.950;8.970;2022-07-23T00:39:23;7.10;;;4.10;;
5343;SDS011;2694;48.950;8.970;2022-07-23T00:41:50;6.40;;;4.07;;
5343;SDS011;2694;48.950;8.970;2022-07-23T00:44:18;6.75;;;4.40;;
5343;SDS011;2694;48.950;8.970;2022-07-23T00:46:48;5.82;;;4.25;;
5343;SDS011;2694;48.950;8.970;2022-07-23T00:49:18;7.07;;;4.30;;
5343;SDS011;2694;48.950;8.970;2022-07-23T00:51:45;6.70;;;4.97;;
5343;SDS011;2694;48.950;8.970;2022-07-23T00:54:13;6.45;;;4.50;;
5343;SDS011;2694;48.950;8.970;2022-07-23T00:56:41;5.68;;;4.20;;
5343;SDS011;2694;48.950;8.970;2022-07-23T00:59:08;5.18;;;4.10;;
5343;SDS011;2694;48.950;8.970;2022-07-23T01:01:35;5.97;;;4.43;;
5343;SDS011;2694;48.950;8.970;2022-07-23T01:04:02;7.28;;;4.60;;
5343;SDS011;2694;48.950;8.970;2022-07-23T01:06:29;5.60;;;4.10;;
5343;SDS011;2694;48.950;8.970;2022-07-23T01:09:00;6.00;;;4.50;;
5343;SDS011;2694;48.950;8.970;2022-07-23T01:11:28;7.30;;;4.40;;
5343;SDS011;2694;48.950;8.970;2022-07-23T01:13:57;5.00;;;4.30;;
5343;SDS011;2694;48.950;8.970;2022-07-23T01:16:24;5.05;;;4.25;;
5343;SDS011;2694;48.950;8.970;2022-07-23T01:18:50;7.23;;;4.30;;
5343;SDS011;2694;48.950;8.970;2022-07-23T01:21:18;6.25;;;4.82;;
5343;SDS011;2694;48.950;8.970;2022-07-23T01:23:46;7.72;;;4.65;;
5343;SDS011;2694;48.950;8.970;2022-07-23T01:26:13;6.90;;;4.80;;
5343;SDS011;2694;48.950;8.970;2022-07-23T01:28:42;7.13;;;4.68;;
5343;SDS011;2694;48.950;8.970;2022-07-23T01:31:09;5.45;;;4.28;;
5343;SDS011;2694;48.950;8.970;2022-07-23T01:33:36;6.93;;;4.38;;
5343;SDS011;2694;48.950;8.970;2022-07-23T01:36:03;10.88;;;4.43;;
5343;SDS011;2694;48.950;8.970;2022-07-23T01:38:30;7.75;;;4.95;;
5343;SDS011;2694;48.950;8.970;2022-07-23T01:40:58;8.30;;;4.78;;
5343;SDS011;2694;48.950;8.970;2022-07-23T01:43:25;10.60;;;4.78;;
5343;SDS011;2694;48.950;8.970;2022-07-23T01:45:51;6.70;;;4.43;;
5343;SDS011;2694;48.950;8.970;2022-07-23T01:48:18;7.38;;;4.40;;
5343;SDS011;2694;48.950;8.970;2022-07-23T01:50:45;6.15;;;4.45;;
5343;SDS011;2694;48.950;8.970;2022-07-23T01:53:12;8.00;;;5.07;;
5343;SDS011;2694;48.950;8.970;2022-07-23T01:55:39;9.85;;;5.07;;
5343;SDS011;2694;48.950;8.970;2022-07-23T01:58:08;7.45;;;5.10;;
5343;SDS011;2694;48.950;8.970;2022-07-23T02:00:34;7.40;;;4.50;;
5343;SDS011;2694;48.950;8.970;2022-07-23T02:03:02;7.57;;;5.20;;
5343;SDS011;2694;48.950;8.970;2022-07-23T02:05:29;8.73;;;4.68;;
5343;SDS011;2694;48.950;8.970;2022-07-23T02:07:56;6.78;;;4.57;;
5343;SDS011;2694;48.950;8.970;2022-07-23T02:10:23;6.47;;;4.80;;
5343;SDS011;2694;48.950;8.970;2022-07-23T02:12:50;7.43;;;4.55;;
5343;SDS011;2694;48.950;8.970;2022-07-23T02:15:18;7.88;;;5.00;;
5343;SDS011;2694;48.950;8.970;2022-07-23T02:17:46;5.75;;;5.07;;
5343;SDS011;2694;48.950;8.970;2022-07-23T02:20:13;8.20;;;5.00;;
5343;SDS011;2694;48.950;8.970;2022-07-23T02:22:40;8.63;;;4.90;;
5343;SDS011;2694;48.950;8.970;2022-07-23T02:25:07;6.63;;;5.07;;
5343;SDS011;2694;48.950;8.970;2022-07-23T02:27:34;8.63;;;5.22;;
5343;SDS011;2694;48.950;8.970;2022-07-23T02:30:02;8.50;;;4.70;;
5343;SDS011;2694;48.950;8.970;2022-07-23T02:32:31;7.10;;;4.50;;
5343;SDS011;2694;48.950;8.970;2022-07-23T02:34:58;9.00;;;5.43;;
5343;SDS011;2694;48.950;8.970;2022-07-23T02:37:25;7.30;;;4.60;;
5343;SDS011;2694;48.950;8.970;2022-07-23T02:39:52;8.15;;;4.78;;
5343;SDS011;2694;48.950;8.970;2022-07-23T02:42:19;6.68;;;4.35;;
5343;SDS011;2694;48.950;8.970;2022-07-23T02:44:45;7.15;;;4.70;;
5343;SDS011;2694;48.950;8.970;2022-07-23T02:47:12;7.38;;;4.50;;
5343;SDS011;2694;48.950;8.970;2022-07-23T02:49:40;8.45;;;4.82;;
5343;SDS011;2694;48.950;8.970;2022-07-23T02:52:07;6.28;;;4.75;;
5343;SDS011;2694;48.950;8.970;2022-07-23T02:54:35;6.40;;;4.47;;
5343;SDS011;2694;48.950;8.970;2022-07-23T02:57:02;8.25;;;4.47;;
5343;SDS011;2694;48.950;8.970;2022-07-23T02:59:29;8.00;;;4.50;;
5343;SDS011;2694;48.950;8.970;2022-07-23T03:01:56;7.82;;;3.80;;
5343;SDS011;2694;48.950;8.970;2022-07-23T03:04:22;7.03;;;4.00;;
5343;SDS011;2694;48.950;8.970;2022-07-23T03:06:50;7.60;;;4.57;;
5343;SDS011;2694;48.950;8.970;2022-07-23T03:09:18;6.05;;;4.50;;
5343;SDS011;2694;48.950;8.970;2022-07-23T03:11:45;4.20;;;3.40;;
5343;SDS011;2694;48.950;8.970;2022-07-23T03:14:11;6.45;;;3.80;;
5343;SDS011;2694;48.950;8.970;2022-07-23T03:16:38;5.17;;;3.63;;
5343;SDS011;2694;48.950;8.970;2022-07-23T03:19:05;6.88;;;4.15;;
5343;SDS011;2694;48.950;8.970;2022-07-23T03:21:32;6.03;;;3.80;;
5343;SDS011;2694;48.950;8.970;2022-07-23T03:24:00;6.10;;;3.95;;
5343;SDS011;2694;48.950;8.970;2022-07-23T03:26:27;5.20;;;4.00;;
5343;SDS011;2694;48.950;8.970;2022-07-23T03:28:54;6.60;;;3.80;;
5343;SDS011;2694;48.950;8.970;2022-07-23T03:31:20;9.48;;;3.90;;
5343;SDS011;2694;48.950;8.970;2022-07-23T03:33:47;9.95;;;4.10;;
5343;SDS011;2694;48.950;8.970;2022-07-23T03:36:14;8.27;;;3.60;;
5343;SDS011;2694;48.950;8.970;2022-07-23T03:38:41;4.10;;;3.70;;
5343;SDS011;2694;48.950;8.970;2022-07-23T03:41:09;9.02;;;3.95;;
5343;SDS011;2694;48.950;8.970;2022-07-23T03:43:36;5.88;;;3.63;;
5343;SDS011;2694;48.950;8.970;2022-07-23T03:46:03;6.15;;;3.95;;
5343;SDS011;2694;48.950;8.970;2022-07-23T03:48:30;5.25;;;3.80;;
5343;SDS011;2694;48.950;8.970;2022-07-23T03:50:57;4.90;;;3.72;;
5343;SDS011;2694;48.950;8.970;2022-07-23T03:53:23;8.40;;;4.40;;
5343;SDS011;2694;48.950;8.970;2022-07-23T03:55:50;7.95;;;3.75;;
5343;SDS011;2694;48.950;8.970;2022-07-23T03:58:19;4.85;;;4.20;;
5343;SDS011;2694;48.950;8.970;2022-07-23T04:00:45;5.43;;;4.10;;
5343;SDS011;2694;48.950;8.970;2022-07-23T04:03:12;7.50;;;4.30;;
5343;SDS011;2694;48.950;8.970;2022-07-23T04:05:39;5.40;;;3.90;;
5343;SDS011;2694;48.950;8.970;2022-07-23T04:08:06;5.45;;;3.70;;
5343;SDS011;2694;48.950;8.970;2022-07-23T04:10:33;8.10;;;4.78;;
5343;SDS011;2694;48.950;8.970;2022-07-23T04:13:00;7.38;;;5.75;;
5343;SDS011;2694;48.950;8.970;2022-07-23T04:15:28;7.68;;;4.80;;
5343;SDS011;2694;48.950;8.970;2022-07-23T04:17:55;7.70;;;4.40;;
5343;SDS011;2694;48.950;8.970;2022-07-23T04:20:22;5.32;;;4.10;;
5343;SDS011;2694;48.950;8.970;2022-07-23T04:22:48;8.77;;;4.55;;
5343;SDS011;2694;48.950;8.970;2022-07-23T04:25:15;6.30;;;4.22;;
5343;SDS011;2694;48.950;8.970;2022-07-23T04:27:42;7.32;;;4.90;;
5343;SDS011;2694;48.950;8.970;2022-07-23T04:30:09;9.85;;;4.40;;
5343;SDS011;2694;48.950;8.970;2022-07-23T04:32:38;7.70;;;4.50;;
5343;SDS011;2694;48.950;8.970;2022-07-23T04:35:04;6.32;;;4.20;;
5343;SDS011;2694;48.950;8.970;2022-07-23T04:37:31;7.95;;;4.80;;
5343;SDS011;2694;48.950;8.970;2022-07-23T04:39:58;7.50;;;3.88;;
5343;SDS011;2694;48.950;8.970;2022-07-23T04:42:25;5.90;;;4.60;;
5343;SDS011;2694;48.950;8.970;2022-07-23T04:44:52;9.23;;;5.30;;
5343;SDS011;2694;48.950;8.970;2022-07-23T04:47:19;8.38;;;4.80;;
5343;SDS011;2694;48.950;8.970;2022-07-23T04:49:47;7.47;;;4.17;;
5343;SDS011;2694;48.950;8.970;2022-07-23T04:52:14;6.00;;;4.30;;
5343;SDS011;2694;48.950;8.970;2022-07-23T04:54:41;6.90;;;4.35;;
5343;SDS011;2694;48.950;8.970;2022-07-23T04:57:08;6.70;;;4.60;;
5343;SDS011;2694;48.950;8.970;2022-07-23T04:59:34;6.15;;;4.13;;
5343;SDS011;2694;48.950;8.970;2022-07-23T05:02:01;6.13;;;4.37;;
5343;SDS011;2694;48.950;8.970;2022-07-23T05:04:28;6.50;;;3.60;;
5343;SDS011;2694;48.950;8.970;2022-07-23T05:06:57;6.70;;;4.30;;
5343;SDS011;2694;48.950;8.970;2022-07-23T05:09:24;6.60;;;4.20;;
5343;SDS011;2694;48.950;8.970;2022-07-23T05:11:51;9.07;;;4.60;;
5343;SDS011;2694;48.950;8.970;2022-07-23T05:14:18;5.30;;;4.07;;
5343;SDS011;2694;48.950;8.970;2022-07-23T05:16:47;13.70;;;8.70;;
5343;SDS011;2694;48.950;8.970;2022-07-23T05:19:13;6.38;;;4.25;;
5343;SDS011;2694;48.950;8.970;2022-07-23T05:21:40;7.00;;;4.70;;
5343;SDS011;2694;48.950;8.970;2022-07-23T05:24:09;6.05;;;4.00;;
5343;SDS011;2694;48.950;8.970;2022-07-23T05:26:36;7.25;;;4.18;;
5343;SDS011;2694;48.950;8.970;2022-07-23T05:29:02;8.40;;;4.38;;
5343;SDS011;2694;48.950;8.970;2022-07-23T05:31:30;7.57;;;4.00;;
5343;SDS011;2694;48.950;8.970;2022-07-23T05:33:56;6.38;;;4.00;;
5343;SDS011;2694;48.950;8.970;2022-07-23T05:36:23;7.13;;;4.60;;
5343;SDS011;2694;48.950;8.970;2022-07-23T05:38:51;6.68;;;4.10;;
5343;SDS011;2694;48.950;8.970;2022-07-23T05:41:19;6.45;;;3.90;;
5343;SDS011;2694;48.950;8.970;2022-07-23T05:43:46;10.35;;;4.05;;
5343;SDS011;2694;48.950;8.970;2022-07-23T05:46:13;7.72;;;4.38;;
5343;SDS011;2694;48.950;8.970;2022-07-23T05:48:40;7.65;;;4.30;;
5343;SDS011;2694;48.950;8.970;2022-07-23T05:51:07;10.63;;;5.72;;
5343;SDS011;2694;48.950;8.970;2022-07-23T05:53:34;7.25;;;4.78;;
5343;SDS011;2694;48.950;8.970;2022-07-23T05:56:01;8.32;;;4.63;;
5343;SDS011;2694;48.950;8.970;2022-07-23T05:58:29;4.97;;;3.90;;
5343;SDS011;2694;48.950;8.970;2022-07-23T06:00:56;7.05;;;4.32;;
5343;SDS011;2694;48.950;8.970;2022-07-23T06:03:23;8.15;;;5.00;;
5343;SDS011;2694;48.950;8.970;2022-07-23T06:05:50;9.15;;;4.70;;
5343;SDS011;2694;48.950;8.970;2022-07-23T06:08:17;5.90;;;4.50;;
5343;SDS011;2694;48.950;8.970;2022-07-23T06:10:44;6.70;;;4.60;;
5343;SDS011;2694;48.950;8.970;2022-07-23T06:13:11;7.97;;;5.13;;
5343;SDS011;2694;48.950;8.970;2022-07-23T06:15:39;6.72;;;4.50;;
5343;SDS011;2694;48.950;8.970;2022-07-23T06:18:06;8.60;;;4.85;;
5343;SDS011;2694;48.950;8.970;2022-07-23T06:20:32;8.20;;;4.70;;
5343;SDS011;2694;48.950;8.970;2022-07-23T06:22:59;6.32;;;4.68;;
5343;SDS011;2694;48.950;8.970;2022-07-23T06:25:26;7.60;;;5.17;;
5343;SDS011;2694;48.950;8.970;2022-07-23T06:27:53;7.15;;;4.93;;
5343;SDS011;2694;48.950;8.970;2022-07-23T06:30:20;7.30;;;5.37;;
5343;SDS011;2694;48.950;8.970;2022-07-23T06:32:48;7.28;;;4.80;;
5343;SDS011;2694;48.950;8.970;2022-07-23T06:35:15;11.02;;;6.32;;
5343;SDS011;2694;48.950;8.970;2022-07-23T06:37:42;11.00;;;5.70;;
5343;SDS011;2694;48.950;8.970;2022-07-23T06:40:10;10.87;;;5.53;;
5343;SDS011;2694;48.950;8.970;2022-07-23T06:42:37;9.05;;;5.07;;
5343;SDS011;2694;48.950;8.970;2022-07-23T06:45:05;10.70;;;5.20;;
5343;SDS011;2694;48.950;8.970;2022-07-23T06:47:33;11.25;;;5.80;;
5343;SDS011;2694;48.950;8.970;2022-07-23T06:50:02;13.82;;;7.00;;
5343;SDS011;2694;48.950;8.970;2022-07-23T06:52:30;11.80;;;5.70;;
5343;SDS011;2694;48.950;8.970;2022-07-23T06:54:56;10.88;;;6.30;;
5343;SDS011;2694;48.950;8.970;2022-07-23T06:57:23;12.40;;;6.85;;
5343;SDS011;2694;48.950;8.970;2022-07-23T06:59:51;16.77;;;6.80;;
5343;SDS011;2694;48.950;8.970;2022-07-23T07:02:18;11.80;;;6.57;;
5343;SDS011;2694;48.950;8.970;2022-07-23T07:04:45;11.03;;;6.20;;
5343;SDS011;2694;48.950;8.970;2022-07-23T07:07:13;11.02;;;5.93;;
5343;SDS011;2694;48.950;8.970;2022-07-23T07:09:40;11.65;;;6.00;;
5343;SDS011;2694;48.950;8.970;2022-07-23T07:12:07;10.30;;;6.28;;
5343;SDS011;2694;48.950;8.970;2022-07-23T07:14:34;12.40;;;7.20;;
5343;SDS011;2694;48.950;8.970;2022-07-23T07:17:01;13.73;;;6.65;;
5343;SDS011;2694;48.950;8.970;2022-07-23T07:19:28;9.65;;;6.72;;
5343;SDS011;2694;48.950;8.970;2022-07-23T07:21:55;11.35;;;6.22;;
5343;SDS011;2694;48.950;8.970;2022-07-23T07:24:23;8.80;;;6.47;;
5343;SDS011;2694;48.950;8.970;2022-07-23T07:26:49;11.93;;;6.60;;
5343;SDS011;2694;48.950;8.970;2022-07-23T07:29:16;10.75;;;6.22;;
5343;SDS011;2694;48.950;8.970;2022-07-23T07:31:43;12.90;;;6.80;;
5343;SDS011;2694;48.950;8.970;2022-07-23T07:34:10;11.80;;;6.70;;
5343;SDS011;2694;48.950;8.970;2022-07-23T07:36:37;8.85;;;5.97;;
5343;SDS011;2694;48.950;8.970;2022-07-23T07:39:04;13.32;;;6.32;;
5343;SDS011;2694;48.950;8.970;2022-07-23T07:41:33;7.70;;;5.82;;
5343;SDS011;2694;48.950;8.970;2022-07-23T07:43:59;8.02;;;5.82;;
5343;SDS011;2694;48.950;8.970;2022-07-23T07:46:26;9.80;;;5.82;;
5343;SDS011;2694;48.950;8.970;2022-07-23T07:48:53;10.48;;;6.68;;
5343;SDS011;2694;48.950;8.970;2022-07-23T07:51:20;9.35;;;6.05;;
5343;SDS011;2694;48.950;8.970;2022-07-23T07:53:47;12.10;;;6.97;;
5343;SDS011;2694;48.950;8.970;2022-07-23T07:56:14;10.80;;;6.85;;
5343;SDS011;2694;48.950;8.970;2022-07-23T07:58:42;12.07;;;7.25;;
5343;SDS011;2694;48.950;8.970;2022-07-23T08:01:09;14.43;;;6.10;;
5343;SDS011;2694;48.950;8.970;2022-07-23T08:03:36;11.18;;;6.32;;
5343;SDS011;2694;48.950;8.970;2022-07-23T08:06:03;12.73;;;6.90;;
5343;SDS011;2694;48.950;8.970;2022-07-23T08:08:30;10.40;;;6.20;;
5343;SDS011;2694;48.950;8.970;2022-07-23T08:10:56;11.30;;;6.35;;
5343;SDS011;2694;48.950;8.970;2022-07-23T08:13:24;10.07;;;6.13;;
5343;SDS011;2694;48.950;8.970;2022-07-23T08:15:52;8.35;;;5.90;;
5343;SDS011;2694;48.950;8.970;2022-07-23T08:18:19;10.40;;;6.23;;
5343;SDS011;2694;48.950;8.970;2022-07-23T08:20:46;11.13;;;7.20;;
5343;SDS011;2694;48.950;8.970;2022-07-23T08:23:13;8.50;;;5.82;;
5343;SDS011;2694;48.950;8.970;2022-07-23T08:25:43;10.23;;;6.00;;
5343;SDS011;2694;48.950;8.970;2022-07-23T08:28:11;8.68;;;6.82;;
5343;SDS011;2694;48.950;8.970;2022-07-23T08:30:39;10.95;;;7.07;;
5343;SDS011;2694;48.950;8.970;2022-07-23T08:33:09;8.05;;;6.40;;
5343;SDS011;2694;48.950;8.970;2022-07-23T08:35:39;12.18;;;7.53;;
5343;SDS011;2694;48.950;8.970;2022-07-23T08:38:06;12.52;;;6.78;;
5343;SDS011;2694;48.950;8.970;2022-07-23T08:40:36;9.90;;;6.30;;
5343;SDS011;2694;48.950;8.970;2022-07-23T08:43:04;13.05;;;7.03;;
5343;SDS011;2694;48.950;8.970;2022-07-23T08:45:36;7.25;;;5.75;;
5343;SDS011;2694;48.950;8.970;2022-07-23T08:48:04;8.52;;;5.95;;
5343;SDS011;2694;48.950;8.970;2022-07-23T08:50:35;10.82;;;6.82;;
5343;SDS011;2694;48.950;8.970;2022-07-23T08:53:04;11.73;;;6.70;;
5343;SDS011;2694;48.950;8.970;2022-07-23T08:55:33;9.73;;;6.50;;
5343;SDS011;2694;48.950;8.970;2022-07-23T08:58:00;8.30;;;5.90;;
5343;SDS011;2694;48.950;8.970;2022-07-23T09:00:27;10.32;;;6.55;;
5343;SDS011;2694;48.950;8.970;2022-07-23T09:02:54;10.80;;;6.25;;
5343;SDS011;2694;48.950;8.970;2022-07-23T09:05:21;9.25;;;5.80;;
5343;SDS011;2694;48.950;8.970;2022-07-23T09:08:09;8.10;;;6.35;;
5343;SDS011;2694;48.950;8.970;2022-07-23T09:10:45;6.93;;;5.57;;
5343;SDS011;2694;48.950;8.970;2022-07-23T09:13:23;8.93;;;5.80;;
5343;SDS011;2694;48.950;8.970;2022-07-23T09:15:52;9.13;;;5.45;;
5343;SDS011;2694;48.950;8.970;2022-07-23T09:18:27;9.35;;;5.43;;
5343;SDS011;2694;48.950;8.970;2022-07-23T09:21:05;7.22;;;5.07;;
5343;SDS011;2694;48.950;8.970;2022-07-23T09:23:41;7.20;;;5.00;;
5343;SDS011;2694;48.950;8.970;2022-07-23T09:26:19;8.95;;;4.63;;
5343;SDS011;2694;48.950;8.970;2022-07-23T09:28:52;5.67;;;4.30;;
5343;SDS011;2694;48.950;8.970;2022-07-23T09:31:22;6.53;;;4.40;;
5343;SDS011;2694;48.950;8.970;2022-07-23T09:33:49;6.82;;;4.80;;
5343;SDS011;2694;48.950;8.970;2022-07-23T09:36:18;4.60;;;3.70;;
5343;SDS011;2694;48.950;8.970;2022-07-23T09:38:55;5.10;;;4.18;;
5343;SDS011;2694;48.950;8.970;2022-07-23T09:41:21;7.43;;;4.93;;
5343;SDS011;2694;48.950;8.970;2022-07-23T09:43:54;6.50;;;4.20;;
5343;SDS011;2694;48.950;8.970;2022-07-23T09:46:22;5.80;;;4.00;;
5343;SDS011;2694;48.950;8.970;2022-07-23T09:48:51;5.63;;;4.20;;
5343;SDS011;2694;48.950;8.970;2022-07-23T09:51:18;5.30;;;4.00;;
5343;SDS011;2694;48.950;8.970;2022-07-23T09:53:49;5.70;;;4.00;;
5343;SDS011;2694;48.950;8.970;2022-07-23T09:56:17;6.00;;;4.30;;
5343;SDS011;2694;48.950;8.970;2022-07-23T09:58:46;5.13;;;3.80;;
5343;SDS011;2694;48.950;8.970;2022-07-23T10:01:16;5.57;;;4.05;;
5343;SDS011;2694;48.950;8.970;2022-07-23T10:03:44;5.38;;;3.80;;
5343;SDS011;2694;48.950;8.970;2022-07-23T10:06:12;6.68;;;4.18;;
5343;SDS011;2694;48.950;8.970;2022-07-23T10:08:39;5.70;;;3.50;;
5343;SDS011;2694;48.950;8.970;2022-07-23T10:11:07;3.78;;;3.40;;
5343;SDS011;2694;48.950;8.970;2022-07-23T10:13:38;6.95;;;4.40;;
5343;SDS011;2694;48.950;8.970;2022-07-23T10:16:19;6.70;;;4.40;;
5343;SDS011;2694;48.950;8.970;2022-07-23T10:18:47;7.60;;;4.10;;
5343;SDS011;2694;48.950;8.970;2022-07-23T10:21:16;6.32;;;3.60;;
5343;SDS011;2694;48.950;8.970;2022-07-23T10:23:51;5.05;;;3.67;;
5343;SDS011;2694;48.950;8.970;2022-07-23T10:26:28;5.80;;;3.85;;
5343;SDS011;2694;48.950;8.970;2022-07-23T10:29:08;5.72;;;3.85;;
5343;SDS011;2694;48.950;8.970;2022-07-23T10:31:46;5.82;;;4.15;;
5343;SDS011;2694;48.950;8.970;2022-07-23T10:34:19;7.35;;;3.80;;
5343;SDS011;2694;48.950;8.970;2022-07-23T10:36:49;4.60;;;3.58;;
5343;SDS011;2694;48.950;8.970;2022-07-23T10:39:22;4.88;;;3.60;;
5343;SDS011;2694;48.950;8.970;2022-07-23T10:41:52;4.93;;;3.60;;
5343;SDS011;2694;48.950;8.970;2022-07-23T10:44:38;6.28;;;3.80;;
5343;SDS011;2694;48.950;8.970;2022-07-23T10:47:08;4.80;;;3.50;;
5343;SDS011;2694;48.950;8.970;2022-07-23T10:49:49;6.53;;;4.10;;
5343;SDS011;2694;48.950;8.970;2022-07-23T10:52:17;6.03;;;4.18;;
5343;SDS011;2694;48.950;8.970;2022-07-23T10:54:51;6.25;;;4.25;;
5343;SDS011;2694;48.950;8.970;2022-07-23T10:57:20;8.60;;;4.63;;
5343;SDS011;2694;48.950;8.970;2022-07-23T11:02:36;6.15;;;3.50;;
5343;SDS011;2694;48.950;8.970;2022-07-23T11:05:04;8.20;;;4.10;;
5343;SDS011;2694;48.950;8.970;2022-07-23T11:07:32;5.20;;;4.10;;
5343;SDS011;2694;48.950;8.970;2022-07-23T11:09:59;7.80;;;4.35;;
5343;SDS011;2694;48.950;8.970;2022-07-23T11:12:33;5.80;;;4.00;;
5343;SDS011;2694;48.950;8.970;2022-07-23T11:15:02;6.28;;;4.55;;
5343;SDS011;2694;48.950;8.970;2022-07-23T11:17:29;7.25;;;4.05;;
5343;SDS011;2694;48.950;8.970;2022-07-23T11:22:49;6.45;;;4.05;;
5343;SDS011;2694;48.950;8.970;2022-07-23T11:25:34;7.63;;;4.47;;
5343;SDS011;2694;48.950;8.970;2022-07-23T11:28:12;6.93;;;4.90;;
5343;SDS011;2694;48.950;8.970;2022-07-23T11:30:42;6.18;;;4.40;;
5343;SDS011;2694;48.950;8.970;2022-07-23T11:33:16;7.90;;;4.70;;
5343;SDS011;2694;48.950;8.970;2022-07-23T11:35:46;8.10;;;4.70;;
5343;SDS011;2694;48.950;8.970;2022-07-23T11:38:15;5.20;;;4.03;;
5343;SDS011;2694;48.950;8.970;2022-07-23T11:40:43;6.53;;;4.10;;
5343;SDS011;2694;48.950;8.970;2022-07-23T11:43:11;7.50;;;4.53;;
5343;SDS011;2694;48.950;8.970;2022-07-23T11:45:40;6.72;;;5.00;;
5343;SDS011;2694;48.950;8.970;2022-07-23T11:48:09;7.30;;;4.93;;
5343;SDS011;2694;48.950;8.970;2022-07-23T11:50:43;7.77;;;4.90;;
5343;SDS011;2694;48.950;8.970;2022-07-23T11:53:11;7.30;;;5.00;;
5343;SDS011;2694;48.950;8.970;2022-07-23T11:55:38;5.78;;;4.30;;
5343;SDS011;2694;48.950;8.970;2022-07-23T11:58:05;5.85;;;4.50;;
5343;SDS011;2694;48.950;8.970;2022-07-23T12:00:32;7.30;;;4.83;;
5343;SDS011;2694;48.950;8.970;2022-07-23T12:03:01;6.45;;;4.28;;
5343;SDS011;2694;48.950;8.970;2022-07-23T12:05:32;6.53;;;4.70;;
5343;SDS011;2694;48.950;8.970;2022-07-23T12:08:00;6.43;;;4.88;;
5343;SDS011;2694;48.950;8.970;2022-07-23T12:10:30;7.75;;;4.90;;
5343;SDS011;2694;48.950;8.970;2022-07-23T12:13:00;6.22;;;4.30;;
5343;SDS011;2694;48.950;8.970;2022-07-23T12:15:29;6.90;;;4.60;;
5343;SDS011;2694;48.950;8.970;2022-07-23T12:17:58;6.43;;;4.50;;
5343;SDS011;2694;48.950;8.970;2022-07-23T12:20:26;7.20;;;4.15;;
5343;SDS011;2694;48.950;8.970;2022-07-23T12:22:55;5.80;;;5.03;;
5343;SDS011;2694;48.950;8.970;2022-07-23T12:25:25;6.40;;;4.40;;
5343;SDS011;2694;48.950;8.970;2022-07-23T12:28:00;7.15;;;4.88;;
5343;SDS011;2694;48.950;8.970;2022-07-23T12:30:31;5.60;;;4.80;;
5343;SDS011;2694;48.950;8.970;2022-07-23T12:33:00;8.50;;;5.15;;
5343;SDS011;2694;48.950;8.970;2022-07-23T12:35:31;12.23;;;5.43;;
5343;SDS011;2694;48.950;8.970;2022-07-23T12:38:04;8.52;;;5.40;;
5343;SDS011;2694;48.950;8.970;2022-07-23T12:40:32;7.22;;;5.03;;
5343;SDS011;2694;48.950;8.970;2022-07-23T12:43:03;6.63;;;5.00;;
5343;SDS011;2694;48.950;8.970;2022-07-23T12:45:41;12.27;;;5.38;;
5343;SDS011;2694;48.950;8.970;2022-07-23T12:48:16;7.05;;;5.03;;
5343;SDS011;2694;48.950;8.970;2022-07-23T12:50:48;8.05;;;5.30;;
5343;SDS011;2694;48.950;8.970;2022-07-23T12:53:39;6.50;;;4.50;;
5343;SDS011;2694;48.950;8.970;2022-07-23T12:56:09;7.90;;;4.80;;
5343;SDS011;2694;48.950;8.970;2022-07-23T12:58:42;6.22;;;5.30;;
5343;SDS011;2694;48.950;8.970;2022-07-23T13:01:21;6.82;;;5.00;;
5343;SDS011;2694;48.950;8.970;2022-07-23T13:03:54;6.65;;;4.95;;
5343;SDS011;2694;48.950;8.970;2022-07-23T13:06:22;7.10;;;4.60;;
5343;SDS011;2694;48.950;8.970;2022-07-23T13:08:49;9.77;;;4.95;;
5343;SDS011;2694;48.950;8.970;2022-07-23T13:11:16;6.22;;;4.28;;
5343;SDS011;2694;48.950;8.970;2022-07-23T13:13:44;10.30;;;5.20;;
5343;SDS011;2694;48.950;8.970;2022-07-23T13:16:12;6.38;;;4.40;;
5343;SDS011;2694;48.950;8.970;2022-07-23T13:18:38;6.25;;;4.88;;
5343;SDS011;2694;48.950;8.970;2022-07-23T13:21:05;6.40;;;5.28;;
5343;SDS011;2694;48.950;8.970;2022-07-23T13:23:33;6.88;;;4.93;;
5343;SDS011;2694;48.950;8.970;2022-07-23T13:25:59;5.47;;;4.50;;
5343;SDS011;2694;48.950;8.970;2022-07-23T13:28:26;6.17;;;4.60;;
5343;SDS011;2694;48.950;8.970;2022-07-23T13:30:55;7.47;;;4.25;;
5343;SDS011;2694;48.950;8.970;2022-07-23T13:33:22;6.25;;;5.18;;
5343;SDS011;2694;48.950;8.970;2022-07-23T13:35:51;5.28;;;4.32;;
5343;SDS011;2694;48.950;8.970;2022-07-23T13:38:19;8.90;;;4.70;;
5343;SDS011;2694;48.950;8.970;2022-07-23T13:40:47;9.07;;;4.77;;
5343;SDS011;2694;48.950;8.970;2022-07-23T13:43:14;7.00;;;4.43;;
5343;SDS011;2694;48.950;8.970;2022-07-23T13:45:43;7.10;;;4.90;;
5343;SDS011;2694;48.950;8.970;2022-07-23T13:48:12;8.20;;;4.85;;
5343;SDS011;2694;48.950;8.970;2022-07-23T13:50:41;5.97;;;5.00;;
5343;SDS011;2694;48.950;8.970;2022-07-23T13:53:09;10.80;;;5.47;;
5343;SDS011;2694;48.950;8.970;2022-07-23T13:55:38;8.10;;;4.88;;
5343;SDS011;2694;48.950;8.970;2022-07-23T13:58:05;7.78;;;5.00;;
5343;SDS011;2694;48.950;8.970;2022-07-23T14:00:34;6.28;;;5.20;;
5343;SDS011;2694;48.950;8.970;2022-07-23T14:03:02;7.43;;;4.88;;
5343;SDS011;2694;48.950;8.970;2022-07-23T14:05:31;7.30;;;5.20;;
5343;SDS011;2694;48.950;8.970;2022-07-23T14:07:58;5.47;;;4.53;;
5343;SDS011;2694;48.950;8.970;2022-07-23T14:10:25;7.53;;;4.40;;
5343;SDS011;2694;48.950;8.970;2022-07-23T14:12:52;6.35;;;4.95;;
5343;SDS011;2694;48.950;8.970;2022-07-23T14:15:21;6.95;;;4.60;;
5343;SDS011;2694;48.950;8.970;2022-07-23T14:17:49;6.55;;;4.60;;
5343;SDS011;2694;48.950;8.970;2022-07-23T14:20:16;7.40;;;4.53;;
5343;SDS011;2694;48.950;8.970;2022-07-23T14:22:44;7.60;;;4.93;;
5343;SDS011;2694;48.950;8.970;2022-07-23T14:25:11;6.35;;;4.68;;
5343;SDS011;2694;48.950;8.970;2022-07-23T14:27:38;6.10;;;4.50;;
5343;SDS011;2694;48.950;8.970;2022-07-23T14:30:06;7.70;;;4.80;;
5343;SDS011;2694;48.950;8.970;2022-07-23T14:32:34;6.70;;;4.55;;
5343;SDS011;2694;48.950;8.970;2022-07-23T14:35:01;6.47;;;4.40;;
5343;SDS011;2694;48.950;8.970;2022-07-23T14:37:29;6.90;;;5.00;;
5343;SDS011;2694;48.950;8.970;2022-07-23T14:39:57;5.72;;;4.32;;
5343;SDS011;2694;48.950;8.970;2022-07-23T14:42:24;5.47;;;4.10;;
5343;SDS011;2694;48.950;8.970;2022-07-23T14:44:51;6.78;;;4.60;;
5343;SDS011;2694;48.950;8.970;2022-07-23T14:47:18;7.03;;;4.70;;
5343;SDS011;2694;48.950;8.970;2022-07-23T14:49:44;7.85;;;5.05;;
5343;SDS011;2694;48.950;8.970;2022-07-23T14:52:11;7.70;;;4.70;;
5343;SDS011;2694;48.950;8.970;2022-07-23T14:54:38;6.13;;;4.80;;
5343;SDS011;2694;48.950;8.970;2022-07-23T14:57:06;5.90;;;4.88;;
5343;SDS011;2694;48.950;8.970;2022-07-23T14:59:34;7.47;;;4.70;;
5343;SDS011;2694;48.950;8.970;2022-07-23T15:02:01;6.20;;;4.70;;
5343;SDS011;2694;48.950;8.970;2022-07-23T15:04:28;7.45;;;4.60;;
5343;SDS011;2694;48.950;8.970;2022-07-23T15:06:55;6.40;;;4.60;;
5343;SDS011;2694;48.950;8.970;2022-07-23T15:09:22;6.45;;;4.40;;
5343;SDS011;2694;48.950;8.970;2022-07-23T15:11:48;8.15;;;4.28;;
5343;SDS011;2694;48.950;8.970;2022-07-23T15:14:16;6.00;;;4.30;;
5343;SDS011;2694;48.950;8.970;2022-07-23T15:16:43;6.25;;;4.80;;
5343;SDS011;2694;48.950;8.970;2022-07-23T15:19:10;6.60;;;4.47;;
5343;SDS011;2694;48.950;8.970;2022-07-23T15:21:37;8.95;;;4.70;;
5343;SDS011;2694;48.950;8.970;2022-07-23T15:24:04;7.05;;;4.38;;